createdAt,value
2023-11-01T00:03:26.733Z,5.86
2023-11-01T00:08:52.515Z,5.85
2023-11-01T00:14:18.236Z,5.86
2023-11-01T00:19:43.949Z,5.89
2023-11-01T00:25:09.600Z,5.91
2023-11-01T00:30:35.554Z,5.93
2023-11-01T00:36:01.224Z,5.91
2023-11-01T00:41:27.485Z,5.92
2023-11-01T00:46:53.191Z,5.94
2023-11-01T00:52:18.872Z,5.94
2023-11-01T00:57:44.619Z,5.97
2023-11-01T01:03:10.021Z,5.98
2023-11-01T01:08:36.017Z,5.97
2023-11-01T01:14:01.692Z,5.99
2023-11-01T01:19:21.038Z,6.00
2023-11-01T01:24:46.708Z,6.01
2023-11-01T01:30:12.388Z,6.03
2023-11-01T01:35:38.366Z,6.04
2023-11-01T01:41:04.488Z,6.04
2023-11-01T01:46:33.981Z,6.05
2023-11-01T01:52:00.096Z,6.05
2023-11-01T01:57:26.731Z,6.06
2023-11-01T02:02:52.495Z,6.08
2023-11-01T02:08:18.321Z,6.10
2023-11-01T02:13:44.217Z,6.12
2023-11-01T02:19:09.962Z,6.13
2023-11-01T02:24:35.678Z,6.16
2023-11-01T02:30:03.438Z,6.17
2023-11-01T02:35:30.188Z,6.17
2023-11-01T02:40:49.206Z,6.18
2023-11-01T02:46:15.037Z,6.19
2023-11-01T02:51:40.732Z,6.21
2023-11-01T02:57:06.369Z,6.21
2023-11-01T03:02:32.111Z,6.22
2023-11-01T03:07:58.016Z,6.24
2023-11-01T03:13:23.719Z,6.25
2023-11-01T03:18:49.350Z,6.26
2023-11-01T03:24:13.357Z,6.29
2023-11-01T03:29:39.078Z,6.32
2023-11-01T03:35:04.784Z,6.34
2023-11-01T03:40:31.086Z,6.35
2023-11-01T03:45:58.490Z,6.36
2023-11-01T03:51:24.466Z,6.38
2023-11-01T03:56:50.208Z,6.39
2023-11-01T04:02:15.964Z,6.40
2023-11-01T04:07:41.659Z,6.39
2023-11-01T04:13:07.439Z,6.37
2023-11-01T04:18:23.893Z,6.37
2023-11-01T04:23:49.569Z,6.36
2023-11-01T04:29:15.627Z,6.37
2023-11-01T04:34:41.294Z,6.36
2023-11-01T04:40:06.950Z,6.36
2023-11-01T04:45:33.687Z,6.38
2023-11-01T04:50:49.235Z,6.37
2023-11-01T04:56:15.500Z,6.38
2023-11-01T05:01:41.209Z,6.39
2023-11-01T05:06:57.761Z,6.42
2023-11-01T05:12:23.486Z,6.44
2023-11-01T05:17:47.923Z,6.43
2023-11-01T05:23:13.634Z,6.46
2023-11-01T05:28:39.561Z,6.48
2023-11-01T05:33:58.871Z,6.53
2023-11-01T05:39:24.517Z,6.53
2023-11-01T05:44:50.382Z,6.52
2023-11-01T05:50:16.151Z,6.53
2023-11-01T05:55:54.750Z,6.54
2023-11-01T06:01:28.140Z,6.56
2023-11-01T06:06:36.434Z,6.58
2023-11-01T06:12:02.229Z,6.60
2023-11-01T06:17:27.926Z,6.62
2023-11-01T06:22:53.635Z,6.63
2023-11-01T06:28:19.975Z,6.63
2023-11-01T06:33:45.677Z,6.64
2023-11-01T06:39:11.374Z,6.67
2023-11-01T06:44:29.671Z,6.67
2023-11-01T06:49:55.287Z,6.69
2023-11-01T06:55:21.090Z,6.72
2023-11-01T07:00:46.779Z,6.75
2023-11-01T07:06:11.349Z,6.79
2023-11-01T07:11:37.032Z,6.82
2023-11-01T07:17:02.974Z,6.86
2023-11-01T07:22:28.643Z,6.92
2023-11-01T07:27:54.309Z,6.98
2023-11-01T07:33:20.035Z,7.07
2023-11-01T07:38:45.817Z,7.16
2023-11-01T07:44:11.711Z,7.24
2023-11-01T07:49:38.461Z,7.31
2023-11-01T07:55:04.393Z,7.37
2023-11-01T08:00:31.522Z,7.49
2023-11-01T08:05:57.212Z,7.62
2023-11-01T08:11:22.940Z,7.82
2023-11-01T08:16:48.757Z,7.99
2023-11-01T08:22:14.478Z,8.06
2023-11-01T08:27:40.236Z,8.13
2023-11-01T08:33:06.105Z,8.24
2023-11-01T08:38:31.825Z,8.36
2023-11-01T08:43:57.477Z,8.52
2023-11-01T08:49:23.293Z,8.68
2023-11-01T08:54:48.963Z,8.85
2023-11-01T09:00:21.577Z,9.01
2023-11-01T09:05:47.897Z,9.19
2023-11-01T09:11:13.932Z,9.37
2023-11-01T09:16:39.759Z,9.56
2023-11-01T09:22:05.504Z,9.72
2023-11-01T09:27:32.252Z,9.87
2023-11-01T09:32:59.330Z,10.04
2023-11-01T09:38:25.372Z,10.25
2023-11-01T09:43:52.372Z,10.43
2023-11-01T09:49:18.703Z,10.65
2023-11-01T09:54:34.182Z,10.88
2023-11-01T10:00:00.908Z,11.07
2023-11-01T10:05:26.806Z,11.24
2023-11-01T10:10:53.275Z,11.38
2023-11-01T10:16:19.072Z,11.56
2023-11-01T10:21:50.705Z,11.67
2023-11-01T10:27:19.028Z,11.81
2023-11-01T10:32:44.848Z,11.97
2023-11-01T10:38:17.636Z,12.16
2023-11-01T10:43:45.974Z,12.25
2023-11-01T10:49:14.084Z,12.30
2023-11-01T10:54:33.884Z,12.37
2023-11-01T10:59:59.315Z,12.43
2023-11-01T11:05:16.173Z,12.63
2023-11-01T11:10:32.527Z,12.91
2023-11-01T11:16:15.722Z,13.12
2023-11-01T11:22:18.257Z,13.21
2023-11-01T11:28:12.388Z,13.55
2023-11-01T11:33:38.191Z,13.80
2023-11-01T11:39:12.292Z,13.99
2023-11-01T11:44:38.595Z,13.96
2023-11-01T11:50:04.796Z,14.01
2023-11-01T11:55:30.813Z,13.91
2023-11-01T12:00:56.610Z,13.81
2023-11-01T12:06:15.011Z,13.85
2023-11-01T12:11:40.796Z,13.75
2023-11-01T12:17:06.834Z,13.70
2023-11-01T12:22:33.375Z,13.66
2023-11-01T12:27:59.186Z,13.61
2023-11-01T12:33:40.482Z,13.60
2023-11-01T12:39:07.749Z,13.63
2023-11-01T12:44:33.432Z,13.64
2023-11-01T12:50:02.755Z,13.62
2023-11-01T12:55:29.286Z,13.63
2023-11-01T13:00:47.761Z,13.71
2023-11-01T13:06:13.715Z,13.76
2023-11-01T13:11:39.545Z,13.76
2023-11-01T13:17:05.247Z,13.71
2023-11-01T13:22:31.014Z,13.65
2023-11-01T13:27:56.681Z,13.57
2023-11-01T13:33:16.433Z,13.47
2023-11-01T13:38:42.313Z,13.39
2023-11-01T13:44:08.039Z,13.30
2023-11-01T13:49:33.815Z,13.25
2023-11-01T13:54:59.578Z,13.23
2023-11-01T14:00:26.224Z,13.22
2023-11-01T14:05:53.667Z,13.23
2023-11-01T14:11:20.145Z,13.23
2023-11-01T14:16:46.753Z,13.27
2023-11-01T14:22:12.537Z,13.31
2023-11-01T14:27:38.286Z,13.35
2023-11-01T14:33:04.007Z,13.35
2023-11-01T14:38:29.858Z,13.33
2023-11-01T14:43:57.737Z,13.32
2023-11-01T14:49:24.304Z,13.28
2023-11-01T14:54:50.071Z,13.25
2023-11-01T15:00:16.058Z,13.22
2023-11-01T15:05:42.919Z,13.20
2023-11-01T15:11:08.581Z,13.17
2023-11-01T15:16:35.757Z,13.13
2023-11-01T15:22:03.024Z,13.10
2023-11-01T15:27:28.794Z,13.07
2023-11-01T15:32:54.636Z,13.03
2023-11-01T15:38:20.436Z,13.00
2023-11-01T15:43:46.236Z,12.96
2023-11-01T15:49:11.910Z,12.93
2023-11-01T15:54:37.715Z,12.91
2023-11-01T16:00:03.677Z,12.89
2023-11-01T16:05:29.752Z,12.88
2023-11-01T16:10:55.510Z,12.87
2023-11-01T16:16:21.183Z,12.84
2023-11-01T16:21:47.004Z,12.80
2023-11-01T16:27:13.132Z,12.76
2023-11-01T16:32:39.190Z,12.71
2023-11-01T16:38:05.897Z,12.66
2023-11-01T16:43:31.302Z,12.59
2023-11-01T16:49:01.756Z,12.52
2023-11-01T16:54:29.398Z,12.47
2023-11-01T16:59:56.099Z,12.41
2023-11-01T17:05:22.782Z,12.36
2023-11-01T17:10:39.494Z,12.29
2023-11-01T17:16:05.316Z,12.24
2023-11-01T17:21:33.767Z,12.20
2023-11-01T17:26:59.586Z,12.15
2023-11-01T17:32:26.512Z,12.10
2023-11-01T17:37:55.115Z,12.04
2023-11-01T17:43:33.520Z,12.02
2023-11-01T17:49:02.882Z,11.95
2023-11-01T17:54:36.073Z,11.92
2023-11-01T18:00:02.680Z,11.91
2023-11-01T18:05:52.457Z,11.90
2023-11-01T18:11:18.525Z,11.92
2023-11-01T18:16:44.052Z,11.95
2023-11-01T18:22:09.798Z,11.97
2023-11-01T18:27:42.959Z,11.99
2023-11-01T18:33:08.693Z,11.99
2023-11-01T18:38:39.261Z,11.99
2023-11-01T18:44:05.941Z,11.98
2023-11-01T18:49:41.591Z,11.97
2023-11-01T18:55:10.342Z,11.96
2023-11-01T19:00:47.582Z,11.96
2023-11-01T19:06:15.825Z,11.95
2023-11-01T19:11:41.862Z,11.96
2023-11-01T19:16:59.300Z,11.96
2023-11-01T19:22:25.587Z,11.96
2023-11-01T19:27:37.865Z,11.95
2023-11-01T19:33:06.108Z,11.94
2023-11-01T19:38:27.448Z,11.93
2023-11-01T19:43:56.365Z,11.91
2023-11-01T19:49:13.560Z,11.90
2023-11-01T19:54:33.913Z,11.86
2023-11-01T20:00:07.930Z,11.80
2023-11-01T20:05:35.506Z,11.74
2023-11-01T20:11:02.644Z,11.70
2023-11-01T20:16:31.298Z,11.66
2023-11-01T20:21:59.047Z,11.62
2023-11-01T20:27:27.037Z,11.58
2023-11-01T20:32:55.396Z,11.54
2023-11-01T20:38:22.464Z,11.50
2023-11-01T20:43:48.235Z,11.44
2023-11-01T20:49:16.558Z,11.38
2023-11-01T20:54:43.516Z,11.33
2023-11-01T21:00:10.387Z,11.25
2023-11-01T21:05:38.013Z,11.19
2023-11-01T21:11:05.573Z,11.14
2023-11-01T21:16:32.659Z,11.09
2023-11-01T21:22:01.801Z,11.03
2023-11-01T21:27:30.062Z,10.96
2023-11-01T21:32:57.065Z,10.92
2023-11-01T21:38:25.724Z,10.89
2023-11-01T21:43:56.443Z,10.88
2023-11-01T21:49:35.533Z,10.87
2023-11-01T21:55:01.254Z,10.85
2023-11-01T22:00:36.746Z,10.84
2023-11-01T22:06:02.658Z,10.80
2023-11-01T22:11:33.149Z,10.77
2023-11-01T22:17:01.057Z,10.74
2023-11-01T22:22:33.684Z,10.74
2023-11-01T22:28:05.805Z,10.73
2023-11-01T22:33:36.756Z,10.72
2023-11-01T22:39:02.513Z,10.71
2023-11-01T22:44:28.449Z,10.72
2023-11-01T22:49:54.302Z,10.73
2023-11-01T22:55:19.965Z,10.73
2023-11-01T23:00:51.759Z,10.72
2023-11-01T23:06:17.500Z,10.71
2023-11-01T23:11:43.212Z,10.70
2023-11-01T23:17:08.894Z,10.68
2023-11-01T23:22:34.624Z,10.65
2023-11-01T23:28:00.272Z,10.63
2023-11-01T23:33:26.102Z,10.59
2023-11-01T23:39:01.768Z,10.55
2023-11-01T23:44:27.671Z,10.51
2023-11-01T23:50:16.719Z,10.49
2023-11-01T23:55:42.815Z,10.46
